Airfield :
LOGIN :

Register | Disclaimer

   EN    FR    IT 

 










Legend :    VFR   Marginal VFR   IFR   Intensive IFR   Very Intensive IFR
Visi :
Ceiling :
>= 8 km
>= 3000ft
5 to 8 km
1000 to 3000 ft
1500m to 5 km
500 to 1000 ft
800 to 1500m
200 to 500 ft
< 800m
< 200 ft
Symbols :   Thunderstorms  Fog  Heavy snow  Heavy precipitations  Wind > 20 kt
SIGMETs :     Misc.  Thunderstorms  Icing  Turbulence  Mountain Waves  Volcanic Ashes






- Airport Elevation : 13 ft
- IATA code : GOA


LIMJ - Genoa Cristoforo Colombo

CURRENT METAR :
  • 290450Z 36010KT 300V030 9999 FEW060 19/13 Q1004

EXPIRED METARs :
  • 290420Z 02012KT 9999 SCT040 19/13 Q1003
  • 290350Z 05014KT 9999 SCT060 19/14 Q1003
  • 290320Z 05014KT 9999 FEW015 SCT040 18/14 Q1003
  • 290250Z 03008KT 9999 FEW015 SCT028 19/14 Q1004
  • 290220Z 03011KT 9999 FEW015 SCT028 18/14 Q1004
  • 290150Z 03012KT 9999 FEW015 SCT028 19/15 Q1004

TAF TAF LIMJ
Valid from the 29 at 00:00 until the 30 at 00:00 UTC


282300Z 2900/2924 02013KT 9999 SCT030
TEMPO 2900/2904 TSRA
TEMPO 2900/2913 02018G28KT



MET'MAP, your aeronautical weather chart ! - Copyright ORBIFLY December 2007 - Disclaimer

ORBIFLY MET'MAP TEAM :

Programming & Development : Alexandra Zaïnal
Original concept : Baudouin d'Aumeries
Technical & hardware support : Manuel Goepfert
Assistance : Marc-Olivier Méhu

Contact : metmap@orbifly.com




SOURCES & CREDITS :

   NOAA